createdAt,value
2019-02-25T00:02:00.852Z,19.13
2019-02-25T00:04:26.867Z,20.00
2019-02-25T00:06:52.888Z,19.70
2019-02-25T00:09:18.902Z,20.30
2019-02-25T00:11:44.846Z,19.90
2019-02-25T00:14:10.767Z,20.03
2019-02-25T00:16:36.849Z,18.73
2019-02-25T00:19:02.908Z,20.33
2019-02-25T00:21:28.916Z,20.13
2019-02-25T00:23:54.874Z,19.70
2019-02-25T00:26:20.703Z,20.10
2019-02-25T00:28:47.560Z,19.33
2019-02-25T00:31:13.556Z,20.13
2019-02-25T00:33:39.495Z,19.27
2019-02-25T00:36:05.623Z,19.67
2019-02-25T00:38:31.575Z,18.83
2019-02-25T00:40:57.504Z,20.20
2019-02-25T00:43:23.499Z,20.03
2019-02-25T00:45:49.452Z,19.77
2019-02-25T00:48:15.391Z,19.53
2019-02-25T00:50:43.090Z,20.00
2019-02-25T00:53:09.045Z,19.77
2019-02-25T00:55:35.125Z,20.07
2019-02-25T00:58:01.162Z,19.33
2019-02-25T01:00:27.205Z,18.97
2019-02-25T01:02:53.312Z,18.70
2019-02-25T01:05:19.388Z,19.17
2019-02-25T01:07:45.414Z,19.60
2019-02-25T01:10:12.527Z,19.33
2019-02-25T01:12:40.624Z,19.57
2019-02-25T01:15:07.342Z,19.20
2019-02-25T01:17:33.502Z,17.27
2019-02-25T01:19:59.480Z,18.47
2019-02-25T01:22:25.435Z,18.87
2019-02-25T01:24:51.945Z,18.17
2019-02-25T01:27:17.853Z,17.97
2019-02-25T01:29:43.914Z,18.73
2019-02-25T01:32:10.094Z,17.77
2019-02-25T01:34:36.101Z,17.20
2019-02-25T01:37:02.159Z,17.20
2019-02-25T01:39:27.995Z,16.87
2019-02-25T01:41:53.928Z,18.17
2019-02-25T01:44:19.907Z,16.83
2019-02-25T01:46:45.868Z,17.60
2019-02-25T01:49:11.844Z,16.50
2019-02-25T01:51:37.793Z,17.37
2019-02-25T01:54:03.742Z,17.30
2019-02-25T01:56:29.638Z,16.53
2019-02-25T01:58:55.465Z,16.30
2019-02-25T02:01:21.440Z,16.60
2019-02-25T02:03:47.357Z,17.67
2019-02-25T02:06:13.173Z,16.83
2019-02-25T02:08:39.017Z,16.90
2019-02-25T02:11:05.026Z,17.33
2019-02-25T02:13:30.955Z,16.50
2019-02-25T02:15:56.911Z,17.23
2019-02-25T02:18:22.810Z,17.77
2019-02-25T02:20:48.774Z,17.87
2019-02-25T02:23:14.585Z,17.47
2019-02-25T02:25:40.585Z,17.67
2019-02-25T02:28:06.646Z,17.57
2019-02-25T02:30:32.898Z,18.70
2019-02-25T02:32:58.816Z,17.33
2019-02-25T02:35:24.760Z,18.20
2019-02-25T02:37:50.729Z,18.03
2019-02-25T02:40:16.627Z,19.13
2019-02-25T02:42:52.236Z,18.47
2019-02-25T02:45:24.662Z,17.47
2019-02-25T02:48:00.209Z,17.57
2019-02-25T02:50:26.158Z,18.17
2019-02-25T02:52:52.212Z,18.17
2019-02-25T02:55:18.350Z,17.50
2019-02-25T02:57:44.177Z,17.47
2019-02-25T03:00:12.989Z,17.00
2019-02-25T03:02:39.112Z,18.07
2019-02-25T03:05:08.170Z,16.87
2019-02-25T03:07:34.024Z,15.63
2019-02-25T03:09:59.905Z,16.00
2019-02-25T03:12:25.854Z,16.47
2019-02-25T03:14:51.823Z,16.40
2019-02-25T03:17:17.728Z,15.60
2019-02-25T03:19:43.579Z,15.63
2019-02-25T03:22:09.425Z,15.80
2019-02-25T03:24:35.559Z,17.37
2019-02-25T03:27:01.577Z,16.27
2019-02-25T03:29:27.548Z,16.07
2019-02-25T03:31:53.513Z,16.10
2019-02-25T03:34:19.415Z,15.57
2019-02-25T03:36:45.430Z,15.80
2019-02-25T03:39:11.335Z,16.03
2019-02-25T03:41:37.413Z,15.77
2019-02-25T03:44:03.387Z,16.07
2019-02-25T03:46:29.242Z,15.30
2019-02-25T03:48:55.053Z,15.80
2019-02-25T03:51:20.958Z,15.63
2019-02-25T03:53:46.953Z,16.90
2019-02-25T03:56:12.793Z,15.43
2019-02-25T03:58:38.853Z,15.70
2019-02-25T04:01:04.964Z,15.73
2019-02-25T04:03:30.886Z,14.77
2019-02-25T04:05:56.815Z,15.30
2019-02-25T04:08:22.900Z,14.60
2019-02-25T04:10:48.727Z,15.30
2019-02-25T04:13:14.583Z,14.80
2019-02-25T04:15:42.449Z,15.07
2019-02-25T04:18:08.499Z,15.43
2019-02-25T04:20:34.462Z,15.00
2019-02-25T04:23:00.300Z,15.13
2019-02-25T04:25:26.244Z,15.70
2019-02-25T04:27:52.304Z,15.43
2019-02-25T04:30:18.168Z,15.27
2019-02-25T04:32:44.067Z,15.20
2019-02-25T04:35:11.519Z,15.10
2019-02-25T04:37:41.481Z,15.40
2019-02-25T04:40:12.562Z,15.00
2019-02-25T04:42:38.405Z,15.23
2019-02-25T04:45:07.932Z,14.97
2019-02-25T04:47:33.786Z,14.50
2019-02-25T04:49:59.610Z,14.93
2019-02-25T04:52:25.477Z,14.20
2019-02-25T04:54:51.341Z,15.57
2019-02-25T04:57:17.192Z,15.53
2019-02-25T04:59:43.044Z,15.60
2019-02-25T05:02:08.881Z,15.27
2019-02-25T05:04:34.749Z,15.63
2019-02-25T05:07:00.588Z,14.73
2019-02-25T05:09:26.432Z,14.13
2019-02-25T05:11:52.295Z,15.10
2019-02-25T05:14:18.219Z,14.97
2019-02-25T05:16:44.171Z,14.97
2019-02-25T05:19:10.032Z,15.20
2019-02-25T05:21:35.903Z,15.13
2019-02-25T05:24:01.786Z,14.50
2019-02-25T05:26:27.714Z,14.70
2019-02-25T05:28:53.556Z,14.97
2019-02-25T05:31:19.573Z,14.67
2019-02-25T05:33:45.406Z,14.70
2019-02-25T05:36:11.251Z,14.07
2019-02-25T05:38:37.194Z,14.07
2019-02-25T05:41:03.226Z,14.30
2019-02-25T05:43:29.150Z,15.13
2019-02-25T05:45:55.128Z,14.97
2019-02-25T05:48:20.962Z,15.73
2019-02-25T05:50:46.847Z,15.30
2019-02-25T05:53:12.781Z,15.33
2019-02-25T05:55:38.628Z,14.93
2019-02-25T05:58:04.629Z,14.90
2019-02-25T06:00:32.394Z,15.70
2019-02-25T06:02:58.408Z,15.27
2019-02-25T06:05:24.641Z,14.77
2019-02-25T06:07:50.493Z,14.27
2019-02-25T06:10:16.498Z,14.80
2019-02-25T06:12:42.417Z,15.03
2019-02-25T06:15:15.874Z,15.47
2019-02-25T06:17:41.857Z,14.70
2019-02-25T06:20:10.413Z,15.17
2019-02-25T06:22:36.301Z,14.33
2019-02-25T06:25:03.561Z,14.80
2019-02-25T06:27:30.924Z,15.13
2019-02-25T06:29:57.091Z,14.43
2019-02-25T06:32:23.033Z,14.83
2019-02-25T06:34:48.875Z,14.83
2019-02-25T06:37:14.850Z,14.23
2019-02-25T06:39:40.722Z,14.40
2019-02-25T06:42:06.627Z,13.93
2019-02-25T06:44:32.479Z,14.70
2019-02-25T06:46:58.439Z,14.37
2019-02-25T06:49:24.337Z,14.97
2019-02-25T06:51:50.323Z,14.40
2019-02-25T06:54:16.174Z,14.63
2019-02-25T06:56:42.209Z,16.43
2019-02-25T06:59:08.145Z,15.37
2019-02-25T07:01:33.967Z,15.63
2019-02-25T07:04:10.557Z,14.90
2019-02-25T07:06:41.248Z,14.77
2019-02-25T07:09:09.194Z,14.97
2019-02-25T07:11:36.926Z,14.67
2019-02-25T07:14:04.811Z,15.07
2019-02-25T07:16:44.427Z,14.30
2019-02-25T07:19:15.169Z,14.77
2019-02-25T07:21:49.040Z,13.60
2019-02-25T07:24:16.789Z,14.67
2019-02-25T07:26:45.893Z,14.27
2019-02-25T07:29:25.976Z,14.90
2019-02-25T07:31:53.739Z,14.70
2019-02-25T07:34:36.912Z,14.70
2019-02-25T07:37:04.835Z,14.50
2019-02-25T07:39:35.570Z,14.20
2019-02-25T07:42:06.112Z,14.33
2019-02-25T07:44:40.075Z,13.70
2019-02-25T07:47:10.871Z,14.40
2019-02-25T07:49:41.586Z,13.50
2019-02-25T07:52:24.502Z,13.67
2019-02-25T07:54:52.375Z,13.83
2019-02-25T07:57:20.148Z,14.53
2019-02-25T07:59:47.927Z,15.10
2019-02-25T08:02:27.692Z,13.93
2019-02-25T08:04:58.429Z,15.77
2019-02-25T08:07:26.256Z,14.13
2019-02-25T08:10:10.633Z,14.80
2019-02-25T08:12:51.014Z,14.63
2019-02-25T08:15:21.449Z,13.23
2019-02-25T08:17:51.769Z,14.77
2019-02-25T08:20:19.573Z,14.80
2019-02-25T08:23:03.784Z,14.73
2019-02-25T08:25:34.325Z,14.70
2019-02-25T08:28:18.570Z,15.13
2019-02-25T08:30:52.177Z,14.60
2019-02-25T08:33:32.617Z,15.33
2019-02-25T08:36:16.275Z,14.00
2019-02-25T08:38:59.071Z,14.40
2019-02-25T08:41:35.897Z,14.70
2019-02-25T08:44:15.874Z,13.97
2019-02-25T08:46:52.572Z,14.77
2019-02-25T08:49:20.360Z,15.40
2019-02-25T08:51:46.241Z,14.73
2019-02-25T08:54:12.396Z,15.60
2019-02-25T08:56:38.462Z,21.77
2019-02-25T08:59:04.463Z,18.60
2019-02-25T09:01:30.534Z,16.07
2019-02-25T09:03:56.461Z,17.07
2019-02-25T09:06:22.438Z,17.63
2019-02-25T09:08:48.263Z,17.90
2019-02-25T09:11:14.577Z,18.57
2019-02-25T09:13:40.918Z,17.47
2019-02-25T09:16:06.946Z,18.47
2019-02-25T09:18:33.034Z,20.07
2019-02-25T09:20:58.974Z,21.43
2019-02-25T09:23:24.998Z,22.17
2019-02-25T09:25:51.053Z,20.13
2019-02-25T09:28:17.075Z,18.47
2019-02-25T09:30:43.162Z,20.00
2019-02-25T09:33:09.087Z,18.73
2019-02-25T09:35:34.912Z,21.30
2019-02-25T09:38:00.841Z,21.30
2019-02-25T09:40:26.793Z,18.93
2019-02-25T09:42:56.869Z,19.60
2019-02-25T09:45:22.863Z,20.37
2019-02-25T09:47:48.692Z,20.17
2019-02-25T09:50:21.563Z,20.77
2019-02-25T09:52:47.526Z,20.53
2019-02-25T09:55:13.579Z,21.43
2019-02-25T09:57:39.460Z,20.90
2019-02-25T10:00:11.955Z,20.87
2019-02-25T10:02:37.802Z,20.30
2019-02-25T10:05:05.705Z,19.83
2019-02-25T10:07:31.545Z,21.43
2019-02-25T10:09:57.472Z,20.53
2019-02-25T10:12:23.326Z,20.40
2019-02-25T10:14:49.647Z,20.40
2019-02-25T10:17:23.512Z,20.67
2019-02-25T10:19:43.610Z,20.40
2019-02-25T10:22:09.464Z,19.93
2019-02-25T10:24:35.436Z,20.50
2019-02-25T10:27:01.251Z,21.37
2019-02-25T10:29:27.189Z,21.77
2019-02-25T10:31:53.161Z,22.57
2019-02-25T10:34:19.131Z,20.73
2019-02-25T10:36:46.087Z,23.20
2019-02-25T10:39:14.924Z,21.57
2019-02-25T10:41:40.628Z,21.97
2019-02-25T10:44:08.514Z,23.27
2019-02-25T10:46:34.299Z,22.67
2019-02-25T10:49:10.914Z,21.90
2019-02-25T10:51:28.069Z,22.80
2019-02-25T10:53:53.921Z,22.73
2019-02-25T10:56:25.441Z,22.87
2019-02-25T10:58:51.643Z,23.00
2019-02-25T11:01:19.895Z,23.07
2019-02-25T11:03:46.165Z,22.77
2019-02-25T11:06:13.248Z,22.37
2019-02-25T11:08:41.549Z,22.83
2019-02-25T11:11:13.624Z,23.53
2019-02-25T11:13:39.470Z,24.63
2019-02-25T11:16:05.792Z,23.30
2019-02-25T11:18:31.598Z,24.07
2019-02-25T11:20:59.072Z,24.37
2019-02-25T11:23:25.403Z,25.27
2019-02-25T11:25:51.525Z,25.77
2019-02-25T11:28:25.592Z,24.67
2019-02-25T11:30:49.138Z,23.53
2019-02-25T11:33:14.765Z,23.23
2019-02-25T11:35:41.532Z,24.67
2019-02-25T11:38:08.684Z,25.03
2019-02-25T11:40:36.555Z,25.70
2019-02-25T11:43:02.646Z,24.80
2019-02-25T11:45:29.010Z,24.07
2019-02-25T11:47:54.955Z,25.27
2019-02-25T11:50:20.902Z,26.17
2019-02-25T11:52:46.981Z,25.97
2019-02-25T11:55:14.422Z,24.57
2019-02-25T11:57:40.809Z,25.33
2019-02-25T12:00:16.693Z,26.70
2019-02-25T12:02:42.990Z,25.87
2019-02-25T12:05:09.820Z,25.93
2019-02-25T12:07:38.844Z,26.87
2019-02-25T12:10:08.114Z,26.90
2019-02-25T12:12:34.158Z,28.23
2019-02-25T12:15:00.513Z,26.70
2019-02-25T12:17:26.436Z,27.90
2019-02-25T12:19:52.283Z,26.47
2019-02-25T12:22:20.856Z,27.83
2019-02-25T12:24:46.778Z,27.60
2019-02-25T12:27:12.705Z,27.27
2019-02-25T12:29:38.679Z,27.07
2019-02-25T12:32:04.531Z,26.83
2019-02-25T12:34:30.444Z,27.77
2019-02-25T12:36:56.290Z,27.77
2019-02-25T12:39:22.246Z,26.47
2019-02-25T12:41:48.263Z,26.77
2019-02-25T12:44:14.372Z,26.37
2019-02-25T12:46:40.329Z,26.90
2019-02-25T12:49:06.203Z,26.93
2019-02-25T12:51:32.033Z,26.85
2019-02-25T12:53:57.884Z,26.68
2019-02-25T12:56:23.903Z,26.75
2019-02-25T12:58:49.742Z,27.45
2019-02-25T13:01:15.671Z,27.73
2019-02-25T13:03:41.643Z,28.77
2019-02-25T13:06:07.480Z,30.05
2019-02-25T13:08:33.337Z,29.07
2019-02-25T13:10:59.308Z,28.38
2019-02-25T13:13:25.346Z,28.15
2019-02-25T13:15:51.225Z,26.73
2019-02-25T13:18:17.077Z,27.32
2019-02-25T13:20:43.024Z,26.33
2019-02-25T13:23:09.004Z,27.27
2019-02-25T13:25:34.836Z,27.58
2019-02-25T13:28:02.099Z,26.73
2019-02-25T13:30:28.650Z,25.25
2019-02-25T13:32:54.514Z,26.57
2019-02-25T13:35:20.601Z,25.72
2019-02-25T13:37:46.541Z,26.17
2019-02-25T13:40:14.796Z,25.55
2019-02-25T13:42:40.953Z,24.82
2019-02-25T13:45:20.879Z,25.68
2019-02-25T13:47:46.843Z,25.48
2019-02-25T13:50:17.355Z,25.08
2019-02-25T13:52:48.532Z,26.95
2019-02-25T13:55:12.088Z,26.10
2019-02-25T13:57:38.205Z,26.40
2019-02-25T14:00:27.345Z,25.77
2019-02-25T14:02:53.365Z,28.42
2019-02-25T14:05:19.281Z,26.93
2019-02-25T14:07:45.329Z,27.67
2019-02-25T14:10:12.937Z,27.02
2019-02-25T14:12:38.889Z,26.35
2019-02-25T14:15:07.184Z,28.95
2019-02-25T14:17:33.380Z,28.83
2019-02-25T14:19:59.319Z,29.55
2019-02-25T14:22:25.184Z,28.85
2019-02-25T14:24:51.336Z,29.32
2019-02-25T14:27:17.331Z,29.42
2019-02-25T14:29:44.666Z,29.37
2019-02-25T14:32:12.036Z,28.10
2019-02-25T14:34:37.914Z,28.55
2019-02-25T14:37:04.809Z,29.35
2019-02-25T14:39:33.018Z,30.35
2019-02-25T14:41:59.261Z,29.67
2019-02-25T14:44:29.815Z,30.20
2019-02-25T14:46:56.582Z,29.85
2019-02-25T14:49:22.619Z,30.15
2019-02-25T14:51:48.687Z,30.15
2019-02-25T14:54:14.752Z,30.43
2019-02-25T14:56:43.007Z,30.40
2019-02-25T14:59:13.237Z,30.72
2019-02-25T15:01:38.359Z,32.15
2019-02-25T15:04:06.338Z,31.00
2019-02-25T15:06:32.971Z,31.00
2019-02-25T15:09:01.785Z,32.33
2019-02-25T15:11:28.022Z,31.30
2019-02-25T15:13:54.127Z,32.55
2019-02-25T15:16:20.037Z,31.60
2019-02-25T15:18:45.867Z,30.97
2019-02-25T15:21:15.232Z,30.25
2019-02-25T15:23:39.692Z,31.62
2019-02-25T15:26:06.771Z,31.05
2019-02-25T15:28:33.542Z,31.40
2019-02-25T15:31:00.106Z,31.77
2019-02-25T15:33:27.432Z,32.50
2019-02-25T15:35:53.663Z,34.03
2019-02-25T15:38:19.613Z,33.77
2019-02-25T15:40:45.548Z,33.43
2019-02-25T15:43:15.884Z,32.47
2019-02-25T15:45:42.694Z,31.63
2019-02-25T15:48:14.944Z,31.10
2019-02-25T15:50:44.042Z,31.63
2019-02-25T15:53:10.030Z,28.57
2019-02-25T15:55:37.295Z,28.90
2019-02-25T15:58:03.946Z,28.00
2019-02-25T16:00:32.143Z,27.97
2019-02-25T16:02:58.339Z,27.97
2019-02-25T16:05:27.401Z,27.50
2019-02-25T16:07:55.942Z,28.03
2019-02-25T16:10:23.364Z,27.57
2019-02-25T16:12:51.197Z,29.33
2019-02-25T16:15:18.896Z,31.23
2019-02-25T16:17:46.255Z,30.10
2019-02-25T16:20:17.556Z,29.00
2019-02-25T16:22:43.956Z,29.87
2019-02-25T16:25:18.479Z,30.33
2019-02-25T16:27:45.666Z,31.23
2019-02-25T16:30:13.573Z,30.40
2019-02-25T16:32:40.535Z,31.40
2019-02-25T16:35:10.429Z,30.77
2019-02-25T16:37:36.352Z,32.27
2019-02-25T16:40:06.512Z,32.80
2019-02-25T16:42:33.149Z,31.57
2019-02-25T16:45:01.420Z,31.27
2019-02-25T16:47:32.802Z,34.03
2019-02-25T16:50:00.919Z,34.80
2019-02-25T16:52:27.138Z,34.30
2019-02-25T16:54:53.278Z,35.77
2019-02-25T16:57:21.212Z,32.93
2019-02-25T16:59:46.986Z,33.83
2019-02-25T17:02:14.178Z,34.83
2019-02-25T17:04:40.375Z,34.80
2019-02-25T17:07:06.210Z,34.47
2019-02-25T17:09:34.232Z,35.97
2019-02-25T17:12:02.314Z,35.30
2019-02-25T17:14:28.401Z,34.63
2019-02-25T17:16:56.765Z,65.20
2019-02-25T17:19:22.548Z,33.63
2019-02-25T17:21:48.673Z,34.63
2019-02-25T17:24:14.612Z,34.20
2019-02-25T17:26:40.622Z,31.17
2019-02-25T17:29:06.573Z,32.03
2019-02-25T17:31:34.337Z,31.93
2019-02-25T17:34:00.186Z,31.70
2019-02-25T17:36:26.185Z,30.50
2019-02-25T17:38:52.343Z,31.53
2019-02-25T17:41:18.189Z,30.57
2019-02-25T17:43:44.178Z,29.67
2019-02-25T17:46:11.982Z,27.97
2019-02-25T17:48:37.874Z,25.63
2019-02-25T17:51:04.126Z,26.77
2019-02-25T17:53:31.059Z,26.23
2019-02-25T17:55:59.732Z,25.57
2019-02-25T17:58:25.934Z,26.70
2019-02-25T18:00:53.974Z,27.13
2019-02-25T18:03:21.698Z,28.13
2019-02-25T18:05:48.013Z,28.63
2019-02-25T18:08:15.338Z,30.13
2019-02-25T18:10:43.152Z,29.63
2019-02-25T18:13:10.873Z,29.70
2019-02-25T18:15:37.386Z,28.57
2019-02-25T18:18:06.897Z,28.13
2019-02-25T18:20:31.562Z,29.47
2019-02-25T18:22:57.718Z,30.20
2019-02-25T18:25:23.769Z,28.87
2019-02-25T18:27:50.504Z,28.23
2019-02-25T18:30:21.783Z,29.40
2019-02-25T18:32:48.097Z,28.47
2019-02-25T18:35:16.357Z,28.93
2019-02-25T18:37:43.490Z,28.17
2019-02-25T18:40:12.187Z,26.23
2019-02-25T18:42:40.843Z,26.93
2019-02-25T18:45:11.169Z,27.17
2019-02-25T18:47:38.298Z,26.40
2019-02-25T18:50:07.965Z,25.40
2019-02-25T18:52:35.804Z,25.80
2019-02-25T18:55:04.906Z,24.30
2019-02-25T18:57:30.965Z,25.43
2019-02-25T18:59:59.241Z,24.50
2019-02-25T19:02:24.944Z,23.90
2019-02-25T19:04:50.906Z,23.47
2019-02-25T19:07:17.041Z,22.97
2019-02-25T19:09:46.685Z,23.43
2019-02-25T19:12:10.815Z,24.03
2019-02-25T19:14:36.651Z,28.60
2019-02-25T19:17:04.871Z,24.30
2019-02-25T19:19:31.427Z,25.30
2019-02-25T19:21:58.884Z,24.07
2019-02-25T19:24:25.142Z,25.67
2019-02-25T19:26:51.056Z,26.13
2019-02-25T19:29:19.422Z,25.23
2019-02-25T19:31:45.368Z,22.97
2019-02-25T19:34:15.537Z,23.37
2019-02-25T19:36:41.197Z,22.77
2019-02-25T19:39:11.653Z,24.63
2019-02-25T19:41:38.041Z,23.43
2019-02-25T19:44:04.221Z,24.80
2019-02-25T19:46:32.064Z,23.70
2019-02-25T19:48:58.112Z,23.80
2019-02-25T19:51:29.698Z,23.47
2019-02-25T19:53:55.584Z,22.90
2019-02-25T19:56:21.634Z,24.47
2019-02-25T19:58:47.567Z,24.37
2019-02-25T20:01:13.453Z,23.70
2019-02-25T20:03:40.054Z,23.70
2019-02-25T20:06:11.143Z,24.33
2019-02-25T20:08:35.442Z,24.30
2019-02-25T20:11:01.343Z,24.40
2019-02-25T20:13:27.422Z,22.50
2019-02-25T20:15:55.578Z,24.50
2019-02-25T20:18:21.195Z,23.30
2019-02-25T20:20:47.354Z,22.10
2019-02-25T20:23:13.215Z,21.90
2019-02-25T20:25:42.408Z,21.80
2019-02-25T20:28:07.060Z,21.87
2019-02-25T20:30:33.198Z,21.33
2019-02-25T20:33:00.803Z,20.23
2019-02-25T20:35:28.990Z,21.30
2019-02-25T20:37:55.694Z,20.77
2019-02-25T20:40:24.165Z,24.13
2019-02-25T20:42:53.039Z,22.47
2019-02-25T20:45:31.036Z,26.33
2019-02-25T20:47:57.190Z,24.87
2019-02-25T20:50:24.566Z,23.73
2019-02-25T20:52:52.581Z,24.03
2019-02-25T20:55:18.531Z,24.00
2019-02-25T20:57:44.563Z,26.23
2019-02-25T21:00:16.027Z,25.27
2019-02-25T21:02:43.350Z,27.63
2019-02-25T21:05:11.568Z,29.77
2019-02-25T21:07:38.130Z,29.00
2019-02-25T21:10:08.822Z,30.80
2019-02-25T21:12:34.906Z,30.13
2019-02-25T21:15:01.140Z,29.33
2019-02-25T21:17:28.502Z,33.60
2019-02-25T21:19:56.115Z,30.17
2019-02-25T21:22:23.356Z,29.13
2019-02-25T21:24:54.022Z,30.72
2019-02-25T21:27:18.370Z,26.63
2019-02-25T21:29:44.405Z,23.87
2019-02-25T21:32:12.777Z,24.37
2019-02-25T21:34:38.375Z,24.50
2019-02-25T21:37:04.425Z,24.53
2019-02-25T21:39:31.985Z,24.83
2019-02-25T21:41:58.174Z,25.00
2019-02-25T21:44:26.212Z,23.73
2019-02-25T21:46:54.048Z,22.90
2019-02-25T21:49:24.958Z,22.63
2019-02-25T21:51:48.188Z,20.60
2019-02-25T21:54:14.099Z,19.50
2019-02-25T21:56:39.941Z,17.03
2019-02-25T21:59:06.602Z,17.53
2019-02-25T22:01:34.625Z,15.73
2019-02-25T22:04:01.535Z,14.60
2019-02-25T22:06:29.583Z,13.90
2019-02-25T22:08:56.808Z,14.20
2019-02-25T22:11:23.074Z,14.17
2019-02-25T22:13:48.891Z,13.83
2019-02-25T22:16:14.831Z,15.00
2019-02-25T22:18:40.750Z,15.30
2019-02-25T22:21:09.251Z,14.00
2019-02-25T22:23:35.441Z,14.47
2019-02-25T22:26:02.410Z,13.87
2019-02-25T22:28:30.464Z,14.97
2019-02-25T22:30:56.232Z,15.50
2019-02-25T22:33:27.559Z,15.80
2019-02-25T22:35:51.810Z,16.00
2019-02-25T22:38:18.047Z,16.63
2019-02-25T22:40:43.891Z,15.60
2019-02-25T22:43:12.081Z,16.13
2019-02-25T22:45:39.597Z,16.57
2019-02-25T22:48:05.772Z,16.77
2019-02-25T22:50:33.875Z,16.87
2019-02-25T22:53:01.634Z,16.67
2019-02-25T22:55:27.851Z,17.37
2019-02-25T22:57:54.201Z,17.10
2019-02-25T23:00:33.738Z,17.10
2019-02-25T23:02:59.981Z,15.80
2019-02-25T23:05:26.518Z,16.80
2019-02-25T23:07:55.006Z,17.30
2019-02-25T23:10:21.944Z,16.53
2019-02-25T23:12:48.794Z,15.90
2019-02-25T23:15:14.906Z,15.87
2019-02-25T23:17:42.854Z,16.47
2019-02-25T23:20:09.836Z,15.87
2019-02-25T23:22:36.646Z,15.97
2019-02-25T23:25:06.680Z,14.83
2019-02-25T23:27:34.310Z,14.67
2019-02-25T23:30:00.599Z,14.83
2019-02-25T23:32:26.416Z,16.60
2019-02-25T23:34:53.341Z,13.57
2019-02-25T23:37:21.757Z,14.07
2019-02-25T23:39:48.070Z,13.67
2019-02-25T23:42:15.776Z,14.63
2019-02-25T23:44:41.811Z,14.57
2019-02-25T23:47:08.963Z,14.13
2019-02-25T23:49:36.442Z,14.10
2019-02-25T23:52:03.216Z,14.00
2019-02-25T23:54:29.057Z,14.23
2019-02-25T23:57:00.170Z,13.50
2019-02-25T23:59:26.914Z,13.80
